createdAt,value
2022-10-20T00:02:47.972Z,8.73
2022-10-20T00:07:51.684Z,8.75
2022-10-20T00:12:54.039Z,9.43
2022-10-20T00:17:56.430Z,7.97
2022-10-20T00:23:00.121Z,9.00
2022-10-20T00:28:02.508Z,8.15
2022-10-20T00:33:05.526Z,9.23
2022-10-20T00:38:09.329Z,8.73
2022-10-20T00:43:12.867Z,8.80
2022-10-20T00:48:16.067Z,8.57
2022-10-20T00:53:19.824Z,7.72
2022-10-20T00:58:22.347Z,8.18
2022-10-20T01:03:26.788Z,8.93
2022-10-20T01:08:30.523Z,8.65
2022-10-20T01:13:36.269Z,7.80
2022-10-20T01:18:41.950Z,8.30
2022-10-20T01:23:53.978Z,7.95
2022-10-20T01:28:58.881Z,8.45
2022-10-20T01:34:05.438Z,8.07
2022-10-20T01:39:09.863Z,8.40
2022-10-20T01:44:15.934Z,7.82
2022-10-20T01:49:18.342Z,8.45
2022-10-20T01:54:21.649Z,7.63
2022-10-20T01:59:44.822Z,8.75
2022-10-20T02:04:55.742Z,7.80
2022-10-20T02:10:01.653Z,8.35
2022-10-20T02:15:05.156Z,9.05
2022-10-20T02:20:09.944Z,9.13
2022-10-20T02:25:12.427Z,8.40
2022-10-20T02:30:16.305Z,8.27
2022-10-20T02:35:21.593Z,8.07
2022-10-20T02:40:24.115Z,8.88
2022-10-20T02:45:26.665Z,8.05
2022-10-20T02:50:30.435Z,7.68
2022-10-20T02:55:32.819Z,8.13
2022-10-20T03:00:35.236Z,8.10
2022-10-20T03:05:41.762Z,8.07
2022-10-20T03:10:44.253Z,9.13
2022-10-20T03:15:46.633Z,8.65
2022-10-20T03:20:52.842Z,8.73
2022-10-20T03:25:55.210Z,8.80
2022-10-20T03:30:57.625Z,8.90
2022-10-20T03:36:01.323Z,8.07
2022-10-20T03:41:03.758Z,8.23
2022-10-20T03:46:07.413Z,9.02
2022-10-20T03:56:17.664Z,8.23
2022-10-20T04:01:25.604Z,9.70
2022-10-20T04:06:28.017Z,8.88
2022-10-20T04:11:31.741Z,9.88
2022-10-20T04:16:34.106Z,9.50
2022-10-20T04:21:37.014Z,9.52
2022-10-20T04:26:40.740Z,10.38
2022-10-20T04:31:46.789Z,10.38
2022-10-20T04:36:51.484Z,10.60
2022-10-20T04:41:55.222Z,11.10
2022-10-20T04:46:57.561Z,11.30
2022-10-20T04:52:01.127Z,11.70
2022-10-20T04:57:06.177Z,11.52
2022-10-20T05:02:08.583Z,11.50
2022-10-20T05:07:11.025Z,12.77
2022-10-20T05:17:22.027Z,13.02
2022-10-20T05:22:24.384Z,13.07
2022-10-20T05:27:28.500Z,13.45
2022-10-20T05:32:30.847Z,13.52
2022-10-20T05:37:33.211Z,13.82
2022-10-20T05:42:37.237Z,13.88
2022-10-20T05:47:39.861Z,14.75
2022-10-20T05:52:42.245Z,13.93
2022-10-20T05:57:45.960Z,13.48
2022-10-20T06:02:48.295Z,14.98
2022-10-20T06:07:50.662Z,13.63
2022-10-20T06:12:54.360Z,14.20
2022-10-20T06:17:56.688Z,14.27
2022-10-20T06:22:59.080Z,14.80
2022-10-20T06:28:02.749Z,13.88
2022-10-20T06:33:05.105Z,15.25
2022-10-20T06:38:07.482Z,14.20
2022-10-20T06:43:11.162Z,14.98
2022-10-20T06:48:13.516Z,14.52
2022-10-20T06:53:15.922Z,13.13
2022-10-20T06:58:19.654Z,12.48
2022-10-20T07:03:22.016Z,13.75
2022-10-20T07:08:25.082Z,13.18
2022-10-20T07:13:29.692Z,13.52
2022-10-20T07:18:32.560Z,13.10
2022-10-20T07:23:35.545Z,13.13
2022-10-20T07:28:40.803Z,12.43
2022-10-20T07:33:43.190Z,12.90
2022-10-20T07:38:46.188Z,12.23
2022-10-20T07:43:49.930Z,12.10
2022-10-20T07:48:52.417Z,11.73
2022-10-20T07:53:59.678Z,11.55
2022-10-20T07:59:04.892Z,10.80
2022-10-20T08:04:07.286Z,10.70
2022-10-20T08:09:09.661Z,10.30
2022-10-20T08:14:13.467Z,9.68
2022-10-20T08:19:40.059Z,8.63
2022-10-20T08:24:42.427Z,9.07
2022-10-20T08:29:55.010Z,9.47
2022-10-20T08:35:02.915Z,9.20
2022-10-20T08:40:05.735Z,9.30
2022-10-20T08:45:15.095Z,9.50
2022-10-20T08:50:18.790Z,9.45
2022-10-20T08:55:25.021Z,9.20
2022-10-20T09:00:31.037Z,8.00
2022-10-20T09:05:34.912Z,8.77
2022-10-20T09:10:38.026Z,8.18
2022-10-20T09:15:42.092Z,7.40
2022-10-20T09:20:47.469Z,6.32
2022-10-20T09:25:50.744Z,7.32
2022-10-20T09:30:54.815Z,7.35
2022-10-20T09:36:00.388Z,7.32
2022-10-20T09:41:10.566Z,7.45
2022-10-20T09:46:18.117Z,6.70
2022-10-20T09:51:22.177Z,6.85
2022-10-20T09:56:28.691Z,7.10
2022-10-20T10:01:32.489Z,7.25
2022-10-20T10:06:41.952Z,6.85
2022-10-20T10:11:44.303Z,7.85
2022-10-20T10:16:48.046Z,8.03
2022-10-20T10:21:53.453Z,8.30
2022-10-20T10:26:56.887Z,7.72
2022-10-20T10:32:01.820Z,8.30
2022-10-20T10:37:04.240Z,9.98
2022-10-20T10:42:18.790Z,9.60
2022-10-20T10:47:28.358Z,9.88
2022-10-20T10:52:36.747Z,9.07
2022-10-20T10:57:46.177Z,9.18
2022-10-20T11:03:03.423Z,9.30
2022-10-20T11:08:13.686Z,9.23
2022-10-20T11:13:24.413Z,9.27
2022-10-20T11:18:45.383Z,8.55
2022-10-20T11:23:55.392Z,9.00
2022-10-20T11:28:58.432Z,9.25
2022-10-20T11:34:05.038Z,9.38
2022-10-20T11:39:12.718Z,9.35
2022-10-20T11:44:16.795Z,9.35
2022-10-20T11:49:19.685Z,9.60
2022-10-20T11:54:28.936Z,9.98
2022-10-20T11:59:46.208Z,10.85
2022-10-20T12:04:57.047Z,10.23
2022-10-20T12:10:10.282Z,10.70
2022-10-20T12:15:22.883Z,11.30
2022-10-20T12:20:43.680Z,9.95
2022-10-20T12:25:47.392Z,11.27
2022-10-20T12:30:55.359Z,11.07
2022-10-20T12:36:01.729Z,11.52
2022-10-20T12:41:05.654Z,12.55
2022-10-20T12:46:10.093Z,12.15
2022-10-20T12:51:24.005Z,11.52
2022-10-20T12:56:28.886Z,14.18
2022-10-20T13:01:31.653Z,13.80
2022-10-20T13:06:40.940Z,15.20
2022-10-20T13:11:46.057Z,16.00
2022-10-20T13:16:50.400Z,17.08
2022-10-20T13:21:52.884Z,16.42
2022-10-20T13:26:59.697Z,18.40
2022-10-20T13:37:23.909Z,18.30
2022-10-20T13:42:33.860Z,18.73
2022-10-20T13:47:46.151Z,24.45
2022-10-20T13:52:50.547Z,19.27
2022-10-20T13:57:55.795Z,15.40
2022-10-20T14:02:59.726Z,15.00
2022-10-20T14:08:06.170Z,14.30
2022-10-20T14:13:11.932Z,14.57
2022-10-20T14:18:21.690Z,15.02
2022-10-20T14:23:24.922Z,15.02
2022-10-20T14:33:31.168Z,16.60
2022-10-20T14:38:37.753Z,14.25
2022-10-20T14:43:41.472Z,14.32
2022-10-20T14:48:46.010Z,14.70
2022-10-20T14:53:48.634Z,14.23
2022-10-20T14:58:57.843Z,13.30
2022-10-20T15:04:16.691Z,13.38
2022-10-20T15:09:20.877Z,13.18
2022-10-20T15:14:23.425Z,13.88
2022-10-20T15:19:29.683Z,14.27
2022-10-20T15:24:32.109Z,15.32
2022-10-20T15:29:34.594Z,15.00
2022-10-20T15:34:39.148Z,16.70
2022-10-20T15:39:41.516Z,14.73
2022-10-20T15:44:43.883Z,13.60
2022-10-20T15:49:48.235Z,15.10
2022-10-20T15:54:50.713Z,15.60
2022-10-20T15:59:53.140Z,15.23
2022-10-20T16:04:56.928Z,15.57
2022-10-20T16:09:59.415Z,17.70
2022-10-20T16:15:02.097Z,19.93
2022-10-20T16:20:07.268Z,21.13
2022-10-20T16:25:10.321Z,22.95
2022-10-20T16:30:12.731Z,22.35
2022-10-20T16:35:16.459Z,21.50
2022-10-20T16:40:19.370Z,22.52
2022-10-20T16:50:30.418Z,26.15
2022-10-20T16:55:32.784Z,24.63
2022-10-20T17:00:35.227Z,26.17
2022-10-20T17:05:38.924Z,27.17
2022-10-20T17:10:42.736Z,26.85
2022-10-20T17:15:45.075Z,29.35
2022-10-20T17:20:53.103Z,27.05
2022-10-20T17:26:00.820Z,31.15
2022-10-20T17:31:03.564Z,28.38
2022-10-20T17:36:08.295Z,31.98
2022-10-20T17:41:11.697Z,35.47
2022-10-20T17:51:19.454Z,35.08
2022-10-20T17:56:23.107Z,36.25
2022-10-20T18:01:26.640Z,34.50
2022-10-20T18:06:34.157Z,40.00
2022-10-20T18:11:37.685Z,42.50
2022-10-20T18:16:40.475Z,41.08
2022-10-20T18:21:44.557Z,43.55
2022-10-20T18:26:47.411Z,35.83
2022-10-20T18:31:51.265Z,39.55
2022-10-20T18:36:56.306Z,41.90
2022-10-20T18:41:58.683Z,47.03
2022-10-20T18:47:01.154Z,47.30
2022-10-20T18:52:04.875Z,40.63
2022-10-20T18:57:07.222Z,39.40
2022-10-20T19:02:10.848Z,38.03
2022-10-20T19:07:14.566Z,39.80
2022-10-20T19:12:16.929Z,38.03
2022-10-20T19:17:19.320Z,36.22
2022-10-20T19:22:26.927Z,35.85
2022-10-20T19:27:31.664Z,35.25
2022-10-20T19:32:36.459Z,37.30
2022-10-20T19:37:42.788Z,34.60
2022-10-20T19:42:45.146Z,36.15
2022-10-20T19:47:47.565Z,35.17
2022-10-20T19:52:54.124Z,39.20
2022-10-20T19:57:58.894Z,35.78
2022-10-20T20:03:01.318Z,37.88
2022-10-20T20:08:05.527Z,36.83
2022-10-20T20:13:07.878Z,35.35
2022-10-20T20:18:12.041Z,39.15
2022-10-20T20:23:16.144Z,34.97
2022-10-20T20:28:18.505Z,34.08
2022-10-20T20:33:20.828Z,34.83
2022-10-20T20:38:24.579Z,35.90
2022-10-20T20:43:26.988Z,32.13
2022-10-20T20:48:29.335Z,34.27
2022-10-20T20:58:41.833Z,37.50
2022-10-20T21:03:44.194Z,34.25
2022-10-20T21:08:48.605Z,33.72
2022-10-20T21:13:51.801Z,31.52
2022-10-20T21:18:55.061Z,32.25
2022-10-20T21:23:59.574Z,34.00
2022-10-20T21:29:01.918Z,33.83
2022-10-20T21:34:05.370Z,32.20
2022-10-20T21:39:11.444Z,32.97
2022-10-20T21:44:14.556Z,36.50
2022-10-20T21:49:17.619Z,34.25
2022-10-20T21:54:22.434Z,34.08
2022-10-20T21:59:25.699Z,35.13
2022-10-20T22:04:28.911Z,34.25
2022-10-20T22:09:32.802Z,39.85
2022-10-20T22:14:35.125Z,38.63
2022-10-20T22:19:37.501Z,33.67
2022-10-20T22:24:41.224Z,39.03
2022-10-20T22:29:43.586Z,37.80
2022-10-20T22:34:45.955Z,41.17
2022-10-20T22:39:49.664Z,36.92
2022-10-20T22:44:52.023Z,37.67
2022-10-20T22:49:54.366Z,39.28
2022-10-20T22:54:58.234Z,37.13
2022-10-20T23:00:00.562Z,39.38
2022-10-20T23:05:02.993Z,39.05
2022-10-20T23:10:07.506Z,40.95
2022-10-20T23:15:10.239Z,43.22
2022-10-20T23:20:12.710Z,42.20
2022-10-20T23:25:16.469Z,39.45
2022-10-20T23:30:18.903Z,39.85
2022-10-20T23:35:21.262Z,41.00
2022-10-20T23:40:24.994Z,40.28
2022-10-20T23:45:27.381Z,39.92
2022-10-20T23:50:29.748Z,37.90
2022-10-20T23:55:33.453Z,38.83
